createdAt,value
2018-06-18T00:00:28.312Z,4.67
2018-06-18T00:02:56.844Z,5.30
2018-06-18T00:05:25.425Z,5.53
2018-06-18T00:07:53.936Z,5.50
2018-06-18T00:10:22.447Z,5.10
2018-06-18T00:12:50.968Z,5.00
2018-06-18T00:15:19.244Z,5.70
2018-06-18T00:17:47.838Z,5.43
2018-06-18T00:20:16.407Z,5.13
2018-06-18T00:22:44.916Z,4.97
2018-06-18T00:25:13.471Z,5.20
2018-06-18T00:27:41.960Z,5.07
2018-06-18T00:30:10.552Z,4.90
2018-06-18T00:32:38.992Z,4.63
2018-06-18T00:35:07.682Z,5.67
2018-06-18T00:37:36.253Z,6.03
2018-06-18T00:40:04.761Z,5.63
2018-06-18T00:42:33.333Z,5.43
2018-06-18T00:45:01.956Z,5.50
2018-06-18T00:47:30.692Z,5.10
2018-06-18T00:49:59.473Z,5.40
2018-06-18T00:52:28.012Z,5.07
2018-06-18T00:54:56.515Z,5.20
2018-06-18T00:57:25.872Z,5.50
2018-06-18T00:59:54.484Z,5.27
2018-06-18T01:02:23.007Z,5.30
2018-06-18T01:04:51.506Z,5.23
2018-06-18T01:07:20.040Z,5.60
2018-06-18T01:09:48.559Z,5.20
2018-06-18T01:12:17.172Z,5.20
2018-06-18T01:14:45.739Z,5.20
2018-06-18T01:17:16.210Z,5.60
2018-06-18T01:19:55.883Z,5.00
2018-06-18T01:25:27.082Z,5.53
2018-06-18T01:27:56.072Z,5.50
2018-06-18T01:30:24.548Z,4.90
2018-06-18T01:32:53.325Z,5.20
2018-06-18T01:35:22.529Z,5.67
2018-06-18T01:37:51.332Z,4.87
2018-06-18T01:40:19.823Z,5.10
2018-06-18T01:42:48.316Z,5.30
2018-06-18T01:45:16.762Z,5.10
2018-06-18T01:47:45.308Z,5.37
2018-06-18T01:50:13.485Z,5.57
2018-06-18T01:52:41.702Z,5.17
2018-06-18T01:55:10.199Z,5.37
2018-06-18T01:57:38.731Z,5.70
2018-06-18T02:00:07.268Z,5.40
2018-06-18T02:02:35.797Z,5.60
2018-06-18T02:05:04.423Z,5.20
2018-06-18T02:07:33.007Z,5.40
2018-06-18T02:10:01.548Z,5.37
2018-06-18T02:12:30.020Z,5.67
2018-06-18T02:14:58.486Z,5.37
2018-06-18T02:17:26.922Z,5.60
2018-06-18T02:19:55.389Z,5.63
2018-06-18T02:22:23.824Z,6.37
2018-06-18T02:24:52.307Z,5.57
2018-06-18T02:27:20.789Z,5.70
2018-06-18T02:31:56.931Z,6.10
2018-06-18T02:34:30.800Z,6.93
2018-06-18T02:37:04.524Z,6.73
2018-06-18T02:39:35.323Z,7.47
2018-06-18T02:42:03.481Z,7.00
2018-06-18T02:44:31.963Z,7.43
2018-06-18T02:47:00.426Z,7.60
2018-06-18T02:49:28.912Z,7.17
2018-06-18T02:51:57.380Z,7.50
2018-06-18T02:54:25.837Z,8.37
2018-06-18T02:56:59.133Z,8.47
2018-06-18T02:59:27.560Z,7.97
2018-06-18T03:01:56.020Z,8.13
2018-06-18T03:04:24.509Z,8.67
2018-06-18T03:06:53.056Z,9.27
2018-06-18T03:09:22.374Z,8.97
2018-06-18T03:11:50.540Z,8.60
2018-06-18T03:14:18.982Z,8.50
2018-06-18T03:16:47.460Z,8.90
2018-06-18T03:19:21.264Z,9.17
2018-06-18T03:21:55.114Z,9.03
2018-06-18T03:24:28.787Z,9.63
2018-06-18T03:27:02.567Z,9.20
2018-06-18T03:29:32.908Z,9.00
2018-06-18T03:32:03.454Z,9.17
2018-06-18T03:34:31.913Z,9.57
2018-06-18T03:37:01.157Z,9.73
2018-06-18T03:39:29.666Z,9.40
2018-06-18T03:41:58.174Z,9.70
2018-06-18T03:44:36.051Z,9.10
2018-06-18T03:47:08.827Z,9.90
2018-06-18T03:49:37.275Z,9.97
2018-06-18T03:52:05.833Z,9.47
2018-06-18T03:54:34.384Z,10.23
2018-06-18T03:57:02.828Z,10.93
2018-06-18T03:59:31.273Z,9.37
2018-06-18T04:02:12.536Z,10.23
2018-06-18T04:05:48.924Z,9.70
2018-06-18T04:08:17.480Z,9.60
2018-06-18T04:10:50.946Z,9.43
2018-06-18T04:13:19.440Z,10.03
2018-06-18T04:15:47.901Z,9.47
2018-06-18T04:18:16.418Z,10.30
2018-06-18T04:20:47.842Z,9.07
2018-06-18T04:23:16.364Z,9.47
2018-06-18T04:25:44.898Z,9.73
2018-06-18T04:28:13.495Z,9.90
2018-06-18T04:30:43.662Z,9.83
2018-06-18T04:33:13.286Z,10.00
2018-06-18T04:35:41.432Z,9.63
2018-06-18T04:38:09.916Z,9.80
2018-06-18T04:40:38.443Z,9.23
2018-06-18T04:43:12.372Z,9.53
2018-06-18T04:45:42.607Z,9.50
2018-06-18T04:48:16.486Z,9.77
2018-06-18T04:50:50.154Z,9.90
2018-06-18T04:53:18.623Z,8.87
2018-06-18T04:55:47.093Z,9.43
2018-06-18T04:58:15.678Z,9.40
2018-06-18T05:01:19.090Z,9.83
2018-06-18T05:03:47.968Z,8.93
2018-06-18T05:06:16.475Z,9.07
2018-06-18T05:10:54.975Z,9.57
2018-06-18T05:13:23.657Z,9.20
2018-06-18T05:15:53.571Z,9.73
2018-06-18T05:18:22.111Z,9.30
2018-06-18T05:20:50.656Z,8.80
2018-06-18T05:23:19.686Z,9.50
2018-06-18T05:25:54.011Z,10.83
2018-06-18T05:28:22.501Z,9.70
2018-06-18T05:30:51.104Z,10.37
2018-06-18T05:33:19.654Z,8.93
2018-06-18T05:35:48.143Z,9.37
2018-06-18T05:38:30.035Z,9.83
2018-06-18T05:40:59.160Z,9.63
2018-06-18T05:43:27.947Z,9.60
2018-06-18T05:45:56.471Z,9.10
2018-06-18T05:48:24.655Z,9.63
2018-06-18T05:50:53.255Z,10.00
2018-06-18T05:53:21.741Z,9.33
2018-06-18T05:55:50.338Z,8.80
2018-06-18T05:58:18.795Z,9.10
2018-06-18T06:00:47.441Z,9.40
2018-06-18T06:03:15.910Z,9.00
2018-06-18T06:05:44.370Z,9.10
2018-06-18T06:08:12.887Z,9.40
2018-06-18T06:10:41.367Z,9.37
2018-06-18T06:13:10.553Z,9.10
2018-06-18T06:15:39.122Z,9.33
2018-06-18T06:18:07.677Z,9.00
2018-06-18T06:20:38.947Z,8.50
2018-06-18T06:23:07.409Z,8.70
2018-06-18T06:25:35.894Z,8.37
2018-06-18T06:28:04.496Z,8.30
2018-06-18T06:30:32.977Z,8.27
2018-06-18T06:33:01.485Z,8.67
2018-06-18T06:35:33.019Z,7.37
2018-06-18T06:38:01.503Z,8.00
2018-06-18T06:40:29.973Z,8.77
2018-06-18T06:42:58.460Z,8.17
2018-06-18T06:45:26.929Z,8.03
2018-06-18T06:47:55.430Z,7.63
2018-06-18T06:50:23.888Z,7.50
2018-06-18T06:52:52.386Z,7.53
2018-06-18T06:55:20.889Z,8.10
2018-06-18T06:57:49.518Z,7.30
2018-06-18T07:00:18.009Z,7.40
2018-06-18T07:02:46.490Z,7.30
2018-06-18T07:05:14.693Z,7.87
2018-06-18T07:07:43.134Z,7.83
2018-06-18T07:10:11.655Z,7.77
2018-06-18T07:12:40.127Z,7.70
2018-06-18T07:15:08.586Z,6.87
2018-06-18T07:17:38.042Z,7.37
2018-06-18T07:20:06.816Z,7.20
2018-06-18T07:22:35.421Z,7.13
2018-06-18T07:25:03.869Z,6.77
2018-06-18T07:27:32.345Z,6.75
2018-06-18T07:30:00.805Z,6.83
2018-06-18T07:32:29.272Z,6.77
2018-06-18T07:34:57.749Z,5.83
2018-06-18T07:37:26.286Z,5.70
2018-06-18T07:39:54.824Z,5.47
2018-06-18T07:42:23.339Z,5.10
2018-06-18T07:44:51.816Z,4.80
2018-06-18T07:47:20.281Z,4.87
2018-06-18T07:49:48.741Z,4.90
2018-06-18T07:52:16.917Z,4.80
2018-06-18T07:54:45.066Z,4.53
2018-06-18T07:57:13.559Z,4.20
2018-06-18T07:59:42.034Z,4.50
2018-06-18T08:02:10.862Z,4.50
2018-06-18T08:04:39.025Z,4.80
2018-06-18T08:07:07.558Z,4.57
2018-06-18T08:09:36.092Z,5.00
2018-06-18T08:12:04.574Z,5.13
2018-06-18T08:14:33.043Z,4.80
2018-06-18T08:17:01.546Z,4.28
2018-06-18T08:19:30.036Z,4.23
2018-06-18T08:21:58.535Z,4.50
2018-06-18T08:24:27.020Z,3.80
2018-06-18T08:26:55.534Z,4.27
2018-06-18T08:29:23.964Z,4.13
2018-06-18T08:31:52.490Z,3.97
2018-06-18T08:34:20.969Z,4.40
2018-06-18T08:36:49.524Z,4.27
2018-06-18T08:39:17.960Z,4.10
2018-06-18T08:41:46.442Z,3.83
2018-06-18T08:44:14.874Z,4.03
2018-06-18T08:46:43.351Z,4.30
2018-06-18T08:49:11.789Z,4.37
2018-06-18T08:51:45.708Z,4.63
2018-06-18T08:54:19.423Z,4.10
2018-06-18T08:56:53.172Z,4.40
2018-06-18T08:59:27.105Z,5.00
2018-06-18T09:01:55.461Z,4.93
2018-06-18T09:04:29.334Z,5.10
2018-06-18T09:07:06.910Z,6.27
2018-06-18T09:09:35.447Z,6.53
2018-06-18T09:12:03.991Z,6.00
2018-06-18T09:14:32.429Z,6.00
2018-06-18T09:17:00.884Z,6.37
2018-06-18T09:19:29.338Z,7.43
2018-06-18T09:21:57.807Z,6.80
2018-06-18T09:24:31.521Z,6.33
2018-06-18T09:27:05.083Z,7.37
2018-06-18T09:29:33.920Z,8.60
2018-06-18T09:32:02.469Z,7.73
2018-06-18T09:34:30.992Z,8.20
2018-06-18T09:36:59.460Z,8.77
2018-06-18T09:39:27.907Z,8.67
2018-06-18T09:41:56.357Z,7.80
2018-06-18T09:44:24.865Z,7.43
2018-06-18T09:46:53.337Z,7.63
2018-06-18T09:49:27.236Z,8.30
2018-06-18T09:52:00.933Z,6.83
2018-06-18T09:54:34.630Z,7.03
2018-06-18T09:57:08.527Z,7.47
2018-06-18T09:59:42.170Z,7.27
2018-06-18T10:02:11.279Z,7.30
2018-06-18T10:04:39.744Z,7.17
2018-06-18T10:07:08.218Z,6.97
2018-06-18T10:09:36.789Z,6.77
2018-06-18T10:12:05.212Z,6.53
2018-06-18T10:14:33.689Z,5.80
2018-06-18T10:17:02.185Z,6.20
2018-06-18T10:19:30.687Z,5.87
2018-06-18T10:21:59.124Z,5.70
2018-06-18T10:24:27.327Z,5.40
2018-06-18T10:26:55.719Z,4.80
2018-06-18T10:29:24.225Z,5.27
2018-06-18T10:31:52.679Z,4.33
2018-06-18T10:34:26.415Z,4.97
2018-06-18T10:37:00.340Z,4.90
2018-06-18T10:39:34.034Z,3.90
2018-06-18T10:42:07.795Z,3.93
2018-06-18T10:44:36.255Z,4.03
2018-06-18T10:47:04.717Z,3.77
2018-06-18T10:49:33.249Z,3.60
2018-06-18T10:52:01.694Z,3.90
2018-06-18T10:54:30.217Z,3.40
2018-06-18T10:56:58.720Z,3.50
2018-06-18T10:59:26.840Z,3.50
2018-06-18T11:01:55.317Z,3.47
2018-06-18T11:04:30.385Z,4.33
2018-06-18T11:06:59.030Z,4.00
2018-06-18T11:09:27.521Z,4.10
2018-06-18T11:11:55.991Z,4.43
2018-06-18T11:14:24.425Z,3.87
2018-06-18T11:16:58.411Z,3.87
2018-06-18T11:19:31.997Z,4.70
2018-06-18T11:22:03.685Z,4.67
2018-06-18T11:24:37.531Z,4.00
2018-06-18T11:27:06.073Z,4.00
2018-06-18T11:29:34.160Z,3.97
2018-06-18T11:32:02.771Z,4.30
2018-06-18T11:34:31.231Z,4.30
2018-06-18T11:37:00.220Z,4.50
2018-06-18T11:39:28.796Z,4.37
2018-06-18T11:41:57.251Z,4.23
2018-06-18T11:44:25.341Z,3.60
2018-06-18T11:46:53.804Z,3.80
2018-06-18T11:49:22.257Z,2.70
2018-06-18T11:51:50.747Z,2.93
2018-06-18T11:54:18.929Z,2.40
2018-06-18T11:56:47.123Z,3.17
2018-06-18T11:59:20.649Z,2.43
2018-06-18T12:01:54.429Z,3.07
2018-06-18T12:04:28.099Z,2.97
2018-06-18T12:07:02.244Z,3.20
2018-06-18T12:09:34.317Z,3.37
2018-06-18T12:12:04.258Z,3.53
2018-06-18T12:14:33.613Z,3.00
2018-06-18T12:17:02.092Z,3.30
2018-06-18T12:19:31.425Z,3.37
2018-06-18T12:22:00.276Z,3.50
2018-06-18T12:24:28.755Z,3.60
2018-06-18T12:26:57.361Z,3.10
2018-06-18T12:29:25.843Z,3.90
2018-06-18T12:31:54.373Z,4.17
2018-06-18T12:34:22.538Z,4.20
2018-06-18T12:36:51.038Z,3.87
2018-06-18T12:39:19.294Z,3.73
2018-06-18T12:41:53.014Z,5.77
2018-06-18T12:44:21.193Z,4.87
2018-06-18T12:46:54.948Z,4.30
2018-06-18T12:49:29.327Z,4.73
2018-06-18T12:52:02.945Z,4.97
2018-06-18T12:54:36.910Z,5.70
2018-06-18T12:57:07.941Z,6.10
2018-06-18T12:59:36.468Z,5.40
2018-06-18T13:02:07.348Z,5.77
2018-06-18T13:04:39.172Z,6.00
2018-06-18T13:07:07.713Z,5.37
2018-06-18T13:09:36.205Z,5.23
2018-06-18T13:12:04.728Z,5.70
2018-06-18T13:14:33.199Z,6.43
2018-06-18T13:17:01.738Z,6.73
2018-06-18T13:19:30.228Z,7.73
2018-06-18T13:21:58.865Z,6.90
2018-06-18T13:24:27.328Z,7.17
2018-06-18T13:26:55.807Z,6.97
2018-06-18T13:29:24.272Z,6.70
2018-06-18T13:31:52.793Z,7.10
2018-06-18T13:34:21.262Z,6.43
2018-06-18T13:36:51.751Z,6.27
2018-06-18T13:39:25.709Z,5.90
2018-06-18T13:41:59.480Z,7.13
2018-06-18T13:44:33.093Z,8.00
2018-06-18T13:47:06.806Z,7.10
2018-06-18T13:49:40.520Z,8.33
2018-06-18T13:52:09.007Z,7.27
2018-06-18T13:54:37.455Z,6.57
2018-06-18T13:57:05.951Z,7.90
2018-06-18T13:59:34.389Z,7.80
2018-06-18T14:02:02.855Z,7.13
2018-06-18T14:04:31.323Z,7.57
2018-06-18T14:06:59.764Z,7.80
2018-06-18T14:09:28.182Z,7.78
2018-06-18T14:11:56.650Z,7.60
2018-06-18T14:14:25.136Z,7.27
2018-06-18T14:16:53.688Z,7.10
2018-06-18T14:19:27.362Z,7.30
2018-06-18T14:21:55.881Z,7.57
2018-06-18T14:24:24.537Z,7.10
2018-06-18T14:26:53.050Z,6.87
2018-06-18T14:30:24.440Z,6.30
2018-06-18T14:32:58.418Z,6.53
2018-06-18T14:35:32.310Z,6.73
2018-06-18T14:38:05.812Z,6.63
2018-06-18T14:40:34.236Z,6.20
2018-06-18T14:43:02.705Z,5.93
2018-06-18T14:45:32.435Z,6.50
2018-06-18T14:48:00.878Z,5.97
2018-06-18T14:50:29.550Z,5.67
2018-06-18T14:52:58.050Z,6.13
2018-06-18T14:55:26.511Z,5.60
2018-06-18T14:57:55.110Z,5.27
2018-06-18T15:00:25.673Z,5.67
2018-06-18T15:02:54.435Z,5.43
2018-06-18T15:05:24.264Z,5.27
2018-06-18T15:07:52.463Z,5.37
2018-06-18T15:10:23.466Z,5.33
2018-06-18T15:12:53.446Z,5.10
2018-06-18T15:16:27.502Z,5.13
2018-06-18T15:18:56.474Z,4.80
2018-06-18T15:21:25.105Z,4.77
2018-06-18T15:23:53.831Z,4.77
2018-06-18T15:26:22.287Z,5.20
2018-06-18T15:28:50.979Z,4.30
2018-06-18T15:31:20.216Z,4.80
2018-06-18T15:33:48.711Z,4.97
2018-06-18T15:36:17.294Z,4.30
2018-06-18T15:38:45.816Z,4.60
2018-06-18T15:41:14.316Z,4.53
2018-06-18T15:43:44.600Z,4.50
2018-06-18T15:46:13.064Z,5.00
2018-06-18T15:48:41.812Z,5.30
2018-06-18T15:51:10.265Z,5.20
2018-06-18T15:53:39.332Z,5.53
2018-06-18T15:56:07.775Z,5.57
2018-06-18T15:58:36.280Z,5.70
2018-06-18T16:01:04.748Z,5.83
2018-06-18T16:03:33.413Z,5.33
2018-06-18T16:06:02.719Z,5.03
2018-06-18T16:08:31.162Z,6.33
2018-06-18T16:11:00.144Z,6.53
2018-06-18T16:13:28.815Z,6.27
2018-06-18T16:15:57.362Z,6.90
2018-06-18T16:18:25.878Z,6.70
2018-06-18T16:20:54.301Z,6.63
2018-06-18T16:23:23.101Z,6.40
2018-06-18T16:25:51.985Z,6.90
2018-06-18T16:28:23.300Z,7.07
2018-06-18T16:30:51.983Z,7.67
2018-06-18T16:33:20.212Z,6.57
2018-06-18T16:35:48.669Z,6.87
2018-06-18T16:38:18.033Z,6.90
2018-06-18T16:40:47.328Z,6.73
2018-06-18T16:43:15.790Z,6.10
2018-06-18T16:45:44.741Z,6.03
2018-06-18T16:48:12.960Z,5.93
2018-06-18T16:50:41.493Z,6.43
2018-06-18T16:53:09.992Z,5.57
2018-06-18T16:55:38.442Z,5.67
2018-06-18T16:58:06.963Z,5.83
2018-06-18T17:00:35.215Z,5.47
2018-06-18T17:03:03.668Z,6.43
2018-06-18T17:05:32.172Z,5.53
2018-06-18T17:08:00.642Z,5.83
2018-06-18T17:10:29.087Z,5.60
2018-06-18T17:12:57.263Z,5.40
2018-06-18T17:15:25.394Z,4.80
2018-06-18T17:17:53.884Z,5.87
2018-06-18T17:20:22.335Z,5.10
2018-06-18T17:22:51.183Z,5.00
2018-06-18T17:25:19.672Z,5.10
2018-06-18T17:27:48.166Z,6.13
2018-06-18T17:30:16.634Z,6.77
2018-06-18T17:32:45.116Z,5.70
2018-06-18T17:35:13.725Z,6.47
2018-06-18T17:37:42.255Z,6.47
2018-06-18T17:40:10.762Z,6.20
2018-06-18T17:42:39.203Z,5.77
2018-06-18T17:45:07.421Z,5.80
2018-06-18T17:47:35.836Z,5.50
2018-06-18T17:50:04.337Z,5.40
2018-06-18T17:52:33.655Z,4.80
2018-06-18T17:55:02.104Z,4.90
2018-06-18T17:57:30.552Z,4.90
2018-06-18T17:59:59.027Z,4.73
2018-06-18T18:02:27.491Z,4.60
2018-06-18T18:04:57.300Z,4.80
2018-06-18T18:07:26.156Z,5.00
2018-06-18T18:09:54.668Z,4.87
2018-06-18T18:12:23.108Z,5.40
2018-06-18T18:14:51.601Z,5.00
2018-06-18T18:17:20.142Z,4.53
2018-06-18T18:19:48.334Z,4.13
2018-06-18T18:22:16.539Z,5.57
2018-06-18T18:24:45.059Z,4.53
2018-06-18T18:27:13.548Z,4.60
2018-06-18T18:29:42.011Z,5.00
2018-06-18T18:32:10.511Z,4.77
2018-06-18T18:34:38.982Z,6.10
2018-06-18T18:37:07.470Z,5.20
2018-06-18T18:39:36.041Z,6.87
2018-06-18T18:42:04.547Z,6.40
2018-06-18T18:44:33.010Z,5.60
2018-06-18T18:47:01.516Z,5.83
2018-06-18T18:49:29.958Z,6.10
2018-06-18T18:51:58.450Z,6.63
2018-06-18T18:55:37.299Z,6.43
2018-06-18T18:58:18.365Z,6.70
2018-06-18T19:00:47.635Z,6.60
2018-06-18T19:03:17.767Z,7.27
2018-06-18T19:05:46.856Z,7.23
2018-06-18T19:08:18.925Z,6.93
2018-06-18T19:10:47.386Z,6.73
2018-06-18T19:13:19.643Z,6.97
2018-06-18T19:15:48.760Z,6.00
2018-06-18T19:18:17.274Z,6.87
2018-06-18T19:20:48.447Z,5.87
2018-06-18T19:23:16.951Z,6.10
2018-06-18T19:25:45.493Z,6.53
2018-06-18T19:28:14.116Z,6.33
2018-06-18T19:30:45.265Z,6.73
2018-06-18T19:33:16.422Z,6.67
2018-06-18T19:35:44.885Z,6.70
2018-06-18T19:38:13.425Z,7.27
2018-06-18T19:40:41.894Z,7.10
2018-06-18T19:43:10.061Z,7.33
2018-06-18T19:45:41.901Z,6.93
2018-06-18T19:48:14.208Z,6.80
2018-06-18T19:50:42.767Z,7.07
2018-06-18T19:53:11.237Z,7.47
2018-06-18T19:55:39.689Z,7.53
2018-06-18T19:58:08.201Z,7.40
2018-06-18T20:00:39.865Z,7.23
2018-06-18T20:03:08.308Z,7.23
2018-06-18T20:05:36.781Z,7.43
2018-06-18T20:08:06.522Z,7.83
2018-06-18T20:10:35.091Z,7.90
2018-06-18T20:13:03.630Z,7.77
2018-06-18T20:15:32.150Z,7.80
2018-06-18T20:18:00.323Z,8.00
2018-06-18T20:20:28.773Z,8.10
2018-06-18T20:22:57.452Z,8.00
2018-06-18T20:25:43.625Z,7.97
2018-06-18T20:28:12.489Z,8.33
2018-06-18T20:30:40.988Z,8.37
2018-06-18T20:33:10.425Z,8.00
2018-06-18T20:35:41.952Z,8.23
2018-06-18T20:38:10.414Z,8.50
2018-06-18T20:40:38.897Z,8.77
2018-06-18T20:43:07.638Z,8.97
2018-06-18T20:45:36.134Z,9.07
2018-06-18T20:48:04.612Z,8.93
2018-06-18T20:50:33.093Z,9.30
2018-06-18T20:55:24.454Z,8.93
2018-06-18T20:57:52.935Z,8.73
2018-06-18T21:00:21.445Z,9.57
2018-06-18T21:02:49.955Z,9.53
2018-06-18T21:05:18.501Z,8.43
2018-06-18T21:07:47.052Z,8.73
2018-06-18T21:10:15.548Z,9.07
2018-06-18T21:12:43.988Z,8.57
2018-06-18T21:15:12.489Z,7.93
2018-06-18T21:17:40.664Z,8.77
2018-06-18T21:20:09.158Z,8.60
2018-06-18T21:22:37.601Z,8.10
2018-06-18T21:25:06.142Z,8.60
2018-06-18T21:27:34.610Z,8.53
2018-06-18T21:30:02.778Z,8.13
2018-06-18T21:32:31.251Z,8.80
2018-06-18T21:34:59.729Z,8.70
2018-06-18T21:37:28.222Z,8.27
2018-06-18T21:39:56.711Z,7.70
2018-06-18T21:42:25.255Z,8.53
2018-06-18T21:45:26.620Z,8.50
2018-06-18T21:47:56.126Z,8.07
2018-06-18T21:50:24.613Z,8.00
2018-06-18T21:52:53.059Z,8.13
2018-06-18T21:55:21.597Z,8.37
2018-06-18T21:57:50.145Z,8.63
2018-06-18T22:00:31.351Z,8.63
2018-06-18T22:02:59.835Z,8.30
2018-06-18T22:05:28.361Z,8.40
2018-06-18T22:07:56.872Z,8.57
2018-06-18T22:10:25.309Z,7.97
2018-06-18T22:12:53.507Z,8.17
2018-06-18T22:15:21.989Z,8.47
2018-06-18T22:17:50.153Z,8.20
2018-06-18T22:20:18.614Z,8.27
2018-06-18T22:22:47.096Z,8.60
2018-06-18T22:25:15.641Z,8.30
2018-06-18T22:27:44.125Z,8.23
2018-06-18T22:30:12.609Z,8.50
2018-06-18T22:32:41.095Z,9.20
2018-06-18T22:35:09.654Z,8.50
2018-06-18T22:37:38.280Z,9.03
2018-06-18T22:40:06.904Z,8.73
2018-06-18T22:42:35.458Z,9.03
2018-06-18T22:45:04.240Z,8.60
2018-06-18T22:47:32.775Z,8.50
2018-06-18T22:50:01.330Z,8.60
2018-06-18T22:52:29.872Z,8.57
2018-06-18T22:54:58.405Z,8.13
2018-06-18T22:57:26.985Z,8.20
2018-06-18T22:59:55.589Z,9.13
2018-06-18T23:02:26.556Z,9.97
2018-06-18T23:04:55.085Z,8.37
2018-06-18T23:07:23.617Z,9.53
2018-06-18T23:09:52.348Z,9.40
2018-06-18T23:12:22.585Z,9.60
2018-06-18T23:14:51.197Z,9.93
2018-06-18T23:17:19.711Z,9.60
2018-06-18T23:19:48.235Z,9.37
2018-06-18T23:22:16.719Z,9.73
2018-06-18T23:24:45.218Z,9.63
2018-06-18T23:27:13.361Z,9.70
2018-06-18T23:29:41.868Z,10.53
2018-06-18T23:32:10.451Z,9.90
2018-06-18T23:34:39.061Z,10.50
2018-06-18T23:37:07.559Z,10.17
2018-06-18T23:39:36.231Z,11.10
2018-06-18T23:42:04.458Z,10.50
2018-06-18T23:44:33.033Z,10.70
2018-06-18T23:47:01.776Z,10.93
2018-06-18T23:49:30.381Z,10.30
2018-06-18T23:51:58.945Z,10.50
2018-06-18T23:54:27.475Z,10.70
2018-06-18T23:56:56.006Z,10.93
2018-06-18T23:59:24.589Z,10.27
